createdAt,value
2023-05-05T00:01:53.713Z,11.63
2023-05-05T00:04:22.885Z,11.61
2023-05-05T00:06:50.851Z,11.76
2023-05-05T00:09:18.406Z,12.17
2023-05-05T00:11:45.453Z,12.26
2023-05-05T00:14:13.561Z,12.21
2023-05-05T00:16:40.588Z,12.20
2023-05-05T00:19:08.180Z,12.03
2023-05-05T00:21:35.143Z,11.87
2023-05-05T00:24:02.139Z,11.75
2023-05-05T00:26:29.088Z,11.73
2023-05-05T00:28:56.322Z,11.65
2023-05-05T00:31:24.047Z,11.53
2023-05-05T00:33:51.242Z,11.45
2023-05-05T00:36:18.720Z,11.41
2023-05-05T00:38:45.712Z,11.34
2023-05-05T00:41:12.814Z,11.30
2023-05-05T00:43:39.719Z,11.32
2023-05-05T00:46:14.826Z,11.20
2023-05-05T00:48:42.053Z,11.17
2023-05-05T00:51:10.552Z,11.12
2023-05-05T00:53:39.948Z,11.12
2023-05-05T00:56:08.052Z,11.04
2023-05-05T00:58:36.846Z,11.06
2023-05-05T01:01:03.753Z,11.26
2023-05-05T01:03:30.913Z,11.39
2023-05-05T01:06:16.758Z,11.23
2023-05-05T01:09:17.685Z,11.14
2023-05-05T01:12:15.526Z,11.06
2023-05-05T01:14:47.534Z,10.99
2023-05-05T01:17:19.010Z,10.91
2023-05-05T01:20:18.265Z,10.83
2023-05-05T01:22:53.430Z,10.73
2023-05-05T01:25:41.743Z,10.75
2023-05-05T01:28:28.761Z,10.74
2023-05-05T01:31:14.964Z,10.66
2023-05-05T01:33:49.850Z,10.66
2023-05-05T01:36:23.725Z,10.63
2023-05-05T01:38:57.344Z,10.61
2023-05-05T01:41:41.394Z,10.59
2023-05-05T01:44:11.065Z,10.59
2023-05-05T01:46:38.249Z,10.55
2023-05-05T01:49:08.715Z,10.54
2023-05-05T01:51:37.212Z,10.53
2023-05-05T01:54:09.053Z,10.45
2023-05-05T01:56:40.466Z,10.62
2023-05-05T01:59:09.074Z,10.87
2023-05-05T02:01:41.159Z,11.11
2023-05-05T02:04:10.091Z,11.31
2023-05-05T02:06:40.055Z,11.34
2023-05-05T02:09:08.636Z,11.33
2023-05-05T02:11:35.896Z,11.31
2023-05-05T02:14:03.528Z,11.23
2023-05-05T02:16:31.431Z,10.96
2023-05-05T02:19:04.869Z,10.87
2023-05-05T02:21:32.899Z,10.84
2023-05-05T02:24:00.331Z,10.75
2023-05-05T02:26:30.496Z,10.67
2023-05-05T02:29:08.103Z,10.66
2023-05-05T02:31:44.414Z,10.59
2023-05-05T02:34:16.484Z,10.55
2023-05-05T02:36:44.913Z,10.51
2023-05-05T02:39:22.168Z,10.55
2023-05-05T02:41:51.495Z,10.54
2023-05-05T02:44:28.043Z,10.47
2023-05-05T02:46:56.680Z,10.43
2023-05-05T02:49:24.542Z,10.38
2023-05-05T02:51:58.295Z,10.28
2023-05-05T02:54:29.340Z,10.27
2023-05-05T02:56:58.011Z,10.22
2023-05-05T02:59:53.137Z,10.22
2023-05-05T03:02:39.160Z,10.23
2023-05-05T03:05:21.564Z,10.17
2023-05-05T03:08:00.483Z,10.19
2023-05-05T03:10:31.383Z,10.14
2023-05-05T03:13:03.023Z,10.10
2023-05-05T03:15:45.067Z,10.08
2023-05-05T03:18:15.796Z,10.08
2023-05-05T03:20:46.862Z,10.06
2023-05-05T03:23:18.562Z,10.06
2023-05-05T03:25:47.254Z,10.13
2023-05-05T03:28:35.505Z,10.21
2023-05-05T03:31:08.828Z,10.37
2023-05-05T03:33:37.871Z,10.48
2023-05-05T03:36:05.000Z,10.45
2023-05-05T03:38:32.581Z,10.42
2023-05-05T03:41:26.059Z,10.31
2023-05-05T03:43:53.769Z,10.31
2023-05-05T03:46:20.847Z,10.27
2023-05-05T03:48:48.853Z,10.30
2023-05-05T03:51:15.951Z,10.32
2023-05-05T03:53:43.044Z,10.40
2023-05-05T03:56:10.743Z,10.53
2023-05-05T03:58:37.723Z,10.56
2023-05-05T04:01:05.234Z,10.63
2023-05-05T04:03:32.329Z,10.67
2023-05-05T04:05:59.548Z,10.59
2023-05-05T04:08:26.744Z,10.63
2023-05-05T04:10:53.687Z,10.75
2023-05-05T04:13:21.251Z,10.94
2023-05-05T04:15:48.753Z,11.22
2023-05-05T04:18:17.224Z,11.31
2023-05-05T04:20:44.557Z,11.53
2023-05-05T04:23:12.205Z,11.81
2023-05-05T04:25:39.780Z,12.03
2023-05-05T04:28:06.769Z,11.97
2023-05-05T04:30:33.660Z,11.93
2023-05-05T04:33:01.139Z,11.80
2023-05-05T04:35:28.479Z,12.01
2023-05-05T04:37:55.821Z,11.94
2023-05-05T04:40:23.199Z,12.27
2023-05-05T04:42:51.219Z,11.86
2023-05-05T04:45:18.306Z,11.82
2023-05-05T04:47:45.812Z,12.10
2023-05-05T04:50:12.936Z,12.61
2023-05-05T04:52:40.448Z,13.21
2023-05-05T04:55:09.737Z,13.74
2023-05-05T04:57:36.828Z,14.03
2023-05-05T05:00:06.553Z,14.66
2023-05-05T05:02:33.890Z,14.86
2023-05-05T05:05:01.182Z,15.53
2023-05-05T05:07:28.181Z,15.92
2023-05-05T05:09:55.235Z,15.99
2023-05-05T05:12:22.416Z,15.94
2023-05-05T05:14:50.553Z,16.00
2023-05-05T05:17:17.945Z,16.26
2023-05-05T05:19:45.029Z,15.68
2023-05-05T05:22:12.215Z,15.46
2023-05-05T05:24:41.113Z,15.04
2023-05-05T05:27:10.339Z,14.31
2023-05-05T05:29:39.958Z,14.32
2023-05-05T05:32:07.175Z,14.61
2023-05-05T05:34:34.463Z,14.47
2023-05-05T05:37:02.567Z,14.21
2023-05-05T05:39:29.589Z,14.03
2023-05-05T05:41:56.798Z,14.14
2023-05-05T05:44:23.894Z,14.60
2023-05-05T05:46:51.258Z,15.64
2023-05-05T05:49:18.299Z,16.33
2023-05-05T05:51:45.801Z,17.27
2023-05-05T05:54:12.822Z,17.60
2023-05-05T05:56:41.106Z,17.26
2023-05-05T05:59:10.278Z,16.74
2023-05-05T06:01:40.611Z,16.65
2023-05-05T06:04:08.270Z,15.97
2023-05-05T06:06:35.626Z,15.67
2023-05-05T06:09:02.756Z,15.64
2023-05-05T06:11:31.915Z,15.29
2023-05-05T06:13:59.948Z,15.33
2023-05-05T06:16:27.055Z,15.30
2023-05-05T06:18:54.583Z,15.12
2023-05-05T06:21:21.634Z,15.31
2023-05-05T06:23:48.682Z,14.73
2023-05-05T06:26:16.124Z,15.08
2023-05-05T06:28:43.300Z,15.13
2023-05-05T06:31:10.317Z,14.82
2023-05-05T06:33:37.337Z,14.81
2023-05-05T06:36:04.560Z,15.06
2023-05-05T06:38:31.672Z,15.09
2023-05-05T06:40:58.864Z,14.91
2023-05-05T06:43:26.006Z,14.89
2023-05-05T06:45:57.617Z,15.28
2023-05-05T06:48:24.686Z,15.61
2023-05-05T06:50:51.680Z,15.76
2023-05-05T06:53:18.626Z,15.90
2023-05-05T06:55:47.333Z,15.92
2023-05-05T06:58:14.274Z,16.03
2023-05-05T07:00:41.756Z,16.11
2023-05-05T07:03:08.818Z,16.16
2023-05-05T07:05:35.860Z,16.34
2023-05-05T07:08:02.840Z,16.07
2023-05-05T07:10:29.826Z,15.97
2023-05-05T07:12:56.901Z,16.01
2023-05-05T07:15:29.413Z,16.21
2023-05-05T07:17:57.499Z,16.67
2023-05-05T07:20:24.804Z,16.77
2023-05-05T07:22:51.843Z,16.87
2023-05-05T07:25:18.937Z,17.09
2023-05-05T07:27:46.127Z,17.34
2023-05-05T07:30:17.362Z,17.65
2023-05-05T07:32:45.256Z,17.62
2023-05-05T07:35:19.096Z,17.36
2023-05-05T07:37:46.599Z,17.54
2023-05-05T07:40:13.676Z,17.47
2023-05-05T07:42:40.700Z,17.66
2023-05-05T07:45:08.426Z,17.82
2023-05-05T07:47:35.744Z,18.17
2023-05-05T07:50:02.744Z,18.10
2023-05-05T07:52:44.127Z,18.18
2023-05-05T07:55:13.462Z,18.21
2023-05-05T07:57:40.558Z,18.34
2023-05-05T08:00:08.489Z,18.35
2023-05-05T08:02:41.965Z,18.61
2023-05-05T08:05:09.756Z,18.63
2023-05-05T08:07:41.475Z,18.53
2023-05-05T08:10:12.430Z,18.48
2023-05-05T08:12:40.035Z,18.73
2023-05-05T08:15:07.928Z,18.97
2023-05-05T08:17:49.251Z,18.97
2023-05-05T08:20:18.611Z,19.00
2023-05-05T08:22:46.401Z,18.91
2023-05-05T08:25:14.474Z,18.86
2023-05-05T08:27:43.042Z,18.81
2023-05-05T08:30:10.664Z,18.92
2023-05-05T08:32:38.654Z,19.26
2023-05-05T08:35:07.056Z,19.50
2023-05-05T08:37:34.970Z,19.66
2023-05-05T08:40:02.023Z,19.45
2023-05-05T08:42:38.212Z,19.70
2023-05-05T08:45:08.790Z,19.93
2023-05-05T08:47:37.206Z,19.71
2023-05-05T08:50:06.178Z,19.68
2023-05-05T08:52:45.555Z,19.73
2023-05-05T08:55:24.432Z,20.21
2023-05-05T08:57:54.834Z,20.05
2023-05-05T09:00:22.685Z,20.24
2023-05-05T09:02:50.268Z,20.08
2023-05-05T09:05:18.135Z,20.19
2023-05-05T09:07:46.992Z,20.20
2023-05-05T09:10:13.983Z,20.31
2023-05-05T09:12:42.713Z,20.34
2023-05-05T09:15:11.895Z,20.38
2023-05-05T09:17:40.032Z,20.10
2023-05-05T09:20:08.695Z,20.12
2023-05-05T09:22:39.864Z,20.31
2023-05-05T09:25:10.053Z,20.33
2023-05-05T09:27:39.040Z,20.46
2023-05-05T09:30:07.086Z,20.55
2023-05-05T09:32:47.808Z,20.56
2023-05-05T09:35:16.447Z,20.61
2023-05-05T09:37:43.958Z,20.89
2023-05-05T09:40:19.639Z,20.82
2023-05-05T09:42:46.933Z,20.83
2023-05-05T09:45:20.088Z,21.17
2023-05-05T09:47:48.394Z,21.31
2023-05-05T09:50:19.174Z,20.89
2023-05-05T09:53:01.015Z,20.69
2023-05-05T09:55:28.747Z,20.68
2023-05-05T09:57:56.022Z,20.88
2023-05-05T10:00:30.663Z,20.95
2023-05-05T10:03:03.294Z,20.86
2023-05-05T10:05:30.604Z,21.02
2023-05-05T10:08:13.491Z,20.95
2023-05-05T10:10:51.719Z,21.19
2023-05-05T10:13:21.017Z,21.23
2023-05-05T10:15:51.411Z,20.99
2023-05-05T10:18:24.473Z,21.01
2023-05-05T10:20:58.029Z,21.21
2023-05-05T10:23:32.483Z,21.21
2023-05-05T10:26:05.848Z,21.37
2023-05-05T10:28:44.126Z,21.25
2023-05-05T10:31:29.754Z,21.42
2023-05-05T10:34:02.818Z,21.48
2023-05-05T10:36:32.031Z,21.49
2023-05-05T10:39:00.426Z,21.54
2023-05-05T10:41:28.846Z,21.69
2023-05-05T10:43:57.756Z,21.72
2023-05-05T10:46:27.051Z,21.79
2023-05-05T10:49:17.910Z,21.87
2023-05-05T10:51:56.996Z,21.94
2023-05-05T10:54:32.966Z,21.72
2023-05-05T10:57:05.075Z,21.87
2023-05-05T10:59:38.386Z,22.02
2023-05-05T11:02:17.907Z,22.14
2023-05-05T11:05:03.227Z,22.29
2023-05-05T11:07:30.253Z,22.47
2023-05-05T11:10:05.522Z,22.33
2023-05-05T11:12:53.720Z,22.17
2023-05-05T11:15:26.607Z,22.12
2023-05-05T11:18:01.921Z,22.20
2023-05-05T11:20:40.010Z,22.46
2023-05-05T11:23:07.154Z,22.53
2023-05-05T11:25:41.228Z,22.28
2023-05-05T11:28:21.194Z,21.81
2023-05-05T11:31:18.220Z,21.91
2023-05-05T11:33:45.439Z,22.26
2023-05-05T11:36:18.084Z,22.60
2023-05-05T11:39:19.565Z,22.57
2023-05-05T11:44:21.112Z,22.78
2023-05-05T11:46:51.164Z,23.19
2023-05-05T11:49:33.360Z,23.47
2023-05-05T11:52:09.518Z,23.64
2023-05-05T11:54:50.807Z,23.44
2023-05-05T11:57:21.889Z,23.41
2023-05-05T11:59:54.942Z,23.24
2023-05-05T12:02:22.544Z,23.11
2023-05-05T12:04:50.193Z,23.45
2023-05-05T12:07:18.672Z,23.31
2023-05-05T12:09:47.412Z,23.26
2023-05-05T12:12:15.486Z,23.50
2023-05-05T12:14:53.151Z,23.58
2023-05-05T12:17:21.281Z,23.87
2023-05-05T12:19:51.052Z,23.81
2023-05-05T12:22:22.568Z,23.55
2023-05-05T12:24:59.944Z,23.87
2023-05-05T12:27:28.400Z,24.28
2023-05-05T12:29:56.998Z,24.20
2023-05-05T12:32:26.403Z,24.46
2023-05-05T12:34:57.748Z,23.97
2023-05-05T12:37:26.486Z,24.05
2023-05-05T12:39:56.645Z,24.13
2023-05-05T12:42:23.702Z,23.79
2023-05-05T12:44:50.877Z,24.07
2023-05-05T12:47:31.960Z,23.74
2023-05-05T12:50:00.790Z,23.63
2023-05-05T12:52:45.027Z,23.42
2023-05-05T12:55:13.067Z,23.23
2023-05-05T12:58:00.644Z,23.06
2023-05-05T13:00:27.818Z,23.17
2023-05-05T13:02:54.943Z,23.24
2023-05-05T13:05:36.736Z,23.53
2023-05-05T13:08:03.818Z,23.48
2023-05-05T13:10:31.589Z,23.69
2023-05-05T13:12:58.809Z,23.39
2023-05-05T13:15:26.391Z,23.50
2023-05-05T13:18:03.074Z,23.70
2023-05-05T13:20:30.096Z,23.79
2023-05-05T13:22:57.527Z,23.66
2023-05-05T13:25:24.595Z,23.79
2023-05-05T13:27:51.638Z,24.26
2023-05-05T13:30:18.583Z,24.38
2023-05-05T13:32:45.602Z,24.19
2023-05-05T13:35:14.763Z,23.84
2023-05-05T13:37:44.536Z,23.90
2023-05-05T13:40:13.574Z,23.76
2023-05-05T13:42:40.569Z,23.70
2023-05-05T13:45:08.045Z,23.88
2023-05-05T13:47:35.305Z,24.03
2023-05-05T13:50:02.524Z,23.65
2023-05-05T13:52:31.108Z,23.75
2023-05-05T13:54:59.116Z,23.82
2023-05-05T13:57:26.705Z,23.64
2023-05-05T13:59:53.737Z,23.71
2023-05-05T14:02:20.771Z,23.79
2023-05-05T14:04:47.697Z,23.96
2023-05-05T14:07:14.839Z,23.84
2023-05-05T14:09:41.987Z,23.75
2023-05-05T14:12:09.004Z,24.06
2023-05-05T14:14:36.335Z,24.01
2023-05-05T14:17:03.425Z,23.57
2023-05-05T14:19:30.385Z,23.86
2023-05-05T14:21:57.815Z,23.86
2023-05-05T14:24:24.816Z,24.09
2023-05-05T14:26:51.775Z,24.17
2023-05-05T14:29:18.822Z,24.20
2023-05-05T14:31:45.802Z,23.96
2023-05-05T14:34:13.006Z,24.21
2023-05-05T14:36:39.885Z,24.20
2023-05-05T14:39:07.205Z,24.01
2023-05-05T14:41:34.080Z,23.91
2023-05-05T14:44:01.071Z,24.22
2023-05-05T14:46:28.280Z,24.22
2023-05-05T14:48:55.355Z,23.92
2023-05-05T14:51:22.403Z,23.92
2023-05-05T14:53:49.440Z,24.18
2023-05-05T14:56:17.246Z,23.93
2023-05-05T14:58:44.277Z,23.92
2023-05-05T15:01:11.385Z,23.88
2023-05-05T15:03:38.498Z,23.79
2023-05-05T15:06:06.046Z,23.70
2023-05-05T15:08:33.123Z,24.01
2023-05-05T15:11:00.028Z,24.54
2023-05-05T15:13:26.998Z,24.67
2023-05-05T15:15:53.943Z,24.66
2023-05-05T15:18:21.117Z,25.96
2023-05-05T15:20:48.116Z,27.01
2023-05-05T15:23:15.585Z,27.89
2023-05-05T15:25:42.576Z,28.90
2023-05-05T15:28:09.520Z,30.42
2023-05-05T15:30:36.661Z,30.96
2023-05-05T15:33:03.858Z,31.07
2023-05-05T15:35:31.038Z,30.33
2023-05-05T15:37:58.013Z,29.61
2023-05-05T15:40:25.138Z,29.57
2023-05-05T15:42:52.160Z,29.08
2023-05-05T15:45:19.320Z,29.66
2023-05-05T15:47:46.510Z,30.78
2023-05-05T15:50:13.934Z,30.14
2023-05-05T15:52:40.946Z,30.66
2023-05-05T15:55:08.877Z,30.81
2023-05-05T15:57:36.207Z,31.28
2023-05-05T16:00:03.401Z,32.33
2023-05-05T16:02:34.694Z,31.14
2023-05-05T16:05:01.772Z,30.66
2023-05-05T16:07:28.694Z,30.54
2023-05-05T16:09:56.988Z,30.70
2023-05-05T16:12:24.009Z,31.30
2023-05-05T16:14:51.000Z,31.30
2023-05-05T16:17:17.901Z,30.95
2023-05-05T16:19:44.994Z,30.10
2023-05-05T16:22:12.135Z,30.46
2023-05-05T16:24:39.408Z,31.51
2023-05-05T16:27:06.445Z,30.99
2023-05-05T16:29:33.458Z,30.15
2023-05-05T16:32:00.828Z,29.24
2023-05-05T16:34:27.876Z,30.18
2023-05-05T16:36:54.787Z,29.98
2023-05-05T16:39:21.863Z,30.08
2023-05-05T16:41:48.809Z,29.57
2023-05-05T16:44:16.060Z,30.16
2023-05-05T16:46:43.099Z,30.62
2023-05-05T16:49:10.151Z,30.88
2023-05-05T16:51:37.137Z,30.65
2023-05-05T16:54:04.285Z,29.85
2023-05-05T16:56:31.197Z,30.58
2023-05-05T16:58:58.280Z,31.38
2023-05-05T17:01:25.288Z,31.65
2023-05-05T17:03:52.297Z,31.39
2023-05-05T17:06:19.377Z,30.91
2023-05-05T17:08:46.301Z,30.81
2023-05-05T17:11:13.344Z,30.36
2023-05-05T17:13:40.369Z,30.79
2023-05-05T17:16:07.357Z,31.48
2023-05-05T17:18:34.442Z,29.86
2023-05-05T17:21:01.417Z,27.84
2023-05-05T17:23:28.355Z,26.14
2023-05-05T17:25:55.308Z,25.02
2023-05-05T17:28:22.671Z,24.04
2023-05-05T17:30:49.526Z,23.61
2023-05-05T17:33:20.983Z,22.95
2023-05-05T17:35:48.644Z,22.56
2023-05-05T17:38:15.840Z,22.39
2023-05-05T17:40:43.346Z,21.98
2023-05-05T17:43:10.495Z,21.78
2023-05-05T17:45:37.522Z,21.56
2023-05-05T17:48:04.757Z,21.42
2023-05-05T17:50:31.752Z,21.28
2023-05-05T17:52:58.715Z,21.22
2023-05-05T17:55:25.988Z,21.05
2023-05-05T17:57:53.013Z,20.86
2023-05-05T18:00:20.909Z,20.61
2023-05-05T18:02:53.051Z,20.46
2023-05-05T18:05:20.843Z,20.31
2023-05-05T18:07:47.756Z,20.36
2023-05-05T18:10:14.820Z,20.19
2023-05-05T18:12:41.901Z,20.04
2023-05-05T18:15:09.541Z,19.97
2023-05-05T18:17:36.627Z,19.84
2023-05-05T18:20:06.896Z,19.78
2023-05-05T18:22:34.374Z,19.89
2023-05-05T18:25:01.275Z,19.96
2023-05-05T18:27:28.947Z,19.95
2023-05-05T18:29:55.912Z,19.89
2023-05-05T18:32:24.046Z,19.74
2023-05-05T18:34:50.987Z,19.76
2023-05-05T18:37:17.963Z,19.73
2023-05-05T18:39:45.420Z,19.65
2023-05-05T18:42:13.231Z,19.55
2023-05-05T18:44:40.192Z,19.39
2023-05-05T18:47:08.016Z,19.28
2023-05-05T18:49:35.165Z,19.16
2023-05-05T18:52:02.062Z,19.09
2023-05-05T18:54:29.176Z,19.11
2023-05-05T18:56:56.320Z,18.98
2023-05-05T18:59:23.262Z,18.87
2023-05-05T19:01:50.291Z,18.78
2023-05-05T19:04:30.245Z,18.84
2023-05-05T19:06:58.192Z,18.79
2023-05-05T19:09:25.190Z,18.68
2023-05-05T19:11:53.293Z,18.61
2023-05-05T19:14:20.368Z,18.57
2023-05-05T19:16:47.334Z,18.61
2023-05-05T19:19:14.615Z,18.45
2023-05-05T19:21:41.655Z,18.46
2023-05-05T19:24:09.238Z,18.40
2023-05-05T19:26:36.261Z,18.40
2023-05-05T19:29:03.515Z,18.33
2023-05-05T19:31:31.453Z,18.25
2023-05-05T19:34:01.592Z,18.14
2023-05-05T19:36:29.164Z,18.00
2023-05-05T19:38:56.169Z,17.92
2023-05-05T19:41:23.419Z,17.89
2023-05-05T19:43:50.350Z,17.88
2023-05-05T19:46:17.487Z,17.75
2023-05-05T19:48:44.580Z,17.73
2023-05-05T19:51:11.658Z,17.81
2023-05-05T19:53:40.331Z,17.89
2023-05-05T19:56:07.694Z,17.84
2023-05-05T19:58:53.402Z,17.77
2023-05-05T20:01:20.474Z,17.69
2023-05-05T20:03:51.343Z,17.64
2023-05-05T20:06:18.451Z,17.64
2023-05-05T20:08:45.566Z,17.46
2023-05-05T20:11:14.297Z,17.52
2023-05-05T20:13:41.748Z,17.39
2023-05-05T20:16:09.163Z,17.41
2023-05-05T20:18:38.088Z,17.31
2023-05-05T20:21:05.269Z,17.30
2023-05-05T20:23:32.326Z,17.27
2023-05-05T20:25:59.405Z,17.31
2023-05-05T20:28:27.106Z,17.28
2023-05-05T20:30:54.321Z,17.32
2023-05-05T20:33:21.286Z,17.35
2023-05-05T20:35:48.355Z,17.27
2023-05-05T20:38:15.232Z,17.33
2023-05-05T20:40:42.352Z,17.30
2023-05-05T20:43:09.291Z,17.21
2023-05-05T20:45:37.383Z,17.10
2023-05-05T20:48:05.732Z,16.97
2023-05-05T20:50:33.089Z,16.85
2023-05-05T20:53:02.666Z,16.86
2023-05-05T20:55:29.724Z,16.82
2023-05-05T20:57:56.697Z,16.69
2023-05-05T21:00:26.525Z,16.64
2023-05-05T21:02:53.814Z,16.54
2023-05-05T21:05:21.189Z,16.47
2023-05-05T21:07:48.094Z,16.42
2023-05-05T21:10:15.063Z,16.33
2023-05-05T21:12:42.056Z,16.49
2023-05-05T21:15:09.965Z,16.35
2023-05-05T21:17:37.358Z,16.27
2023-05-05T21:20:04.665Z,16.20
2023-05-05T21:22:31.824Z,16.15
2023-05-05T21:25:17.505Z,16.05
2023-05-05T21:27:45.741Z,15.99
2023-05-05T21:30:13.188Z,15.88
2023-05-05T21:32:41.166Z,15.78
2023-05-05T21:35:09.430Z,15.65
2023-05-05T21:37:39.813Z,15.55
2023-05-05T21:40:11.266Z,15.46
2023-05-05T21:42:38.485Z,15.40
2023-05-05T21:45:05.761Z,15.31
2023-05-05T21:47:32.795Z,15.31
2023-05-05T21:49:59.791Z,15.21
2023-05-05T21:52:26.825Z,15.17
2023-05-05T21:54:53.778Z,15.13
2023-05-05T21:57:20.886Z,15.06
2023-05-05T21:59:47.855Z,14.99
2023-05-05T22:02:14.873Z,14.94
2023-05-05T22:04:41.776Z,15.00
2023-05-05T22:07:08.693Z,15.04
2023-05-05T22:09:35.915Z,15.04
2023-05-05T22:12:03.063Z,14.91
2023-05-05T22:14:30.293Z,14.95
2023-05-05T22:16:57.284Z,14.89
2023-05-05T22:19:24.264Z,14.82
2023-05-05T22:21:51.248Z,14.86
2023-05-05T22:24:18.182Z,14.80
2023-05-05T22:26:45.257Z,14.92
2023-05-05T22:29:12.338Z,14.87
2023-05-05T22:31:39.968Z,14.66
2023-05-05T22:34:07.263Z,14.55
2023-05-05T22:36:34.226Z,14.41
2023-05-05T22:39:01.261Z,14.44
2023-05-05T22:41:28.386Z,14.40
2023-05-05T22:44:03.358Z,14.33
2023-05-05T22:46:30.451Z,14.34
2023-05-05T22:48:57.402Z,14.52
2023-05-05T22:51:24.342Z,14.49
2023-05-05T22:53:51.353Z,14.46
2023-05-05T22:56:18.326Z,14.46
2023-05-05T22:58:46.766Z,14.79
2023-05-05T23:01:13.905Z,14.86
2023-05-05T23:03:41.718Z,14.77
2023-05-05T23:06:08.790Z,14.63
2023-05-05T23:08:35.790Z,14.63
2023-05-05T23:11:02.794Z,14.66
2023-05-05T23:13:31.055Z,14.88
2023-05-05T23:15:58.017Z,14.95
2023-05-05T23:18:24.992Z,15.01
2023-05-05T23:20:52.074Z,14.98
2023-05-05T23:23:18.951Z,14.79
2023-05-05T23:25:45.947Z,14.79
2023-05-05T23:28:12.989Z,14.64
2023-05-05T23:30:40.056Z,14.55
2023-05-05T23:33:07.067Z,14.33
2023-05-05T23:35:34.520Z,14.20
2023-05-05T23:38:01.568Z,14.04
2023-05-05T23:40:28.522Z,14.01
2023-05-05T23:42:55.465Z,14.02
2023-05-05T23:45:22.428Z,14.05
2023-05-05T23:47:49.760Z,14.03
2023-05-05T23:50:16.772Z,13.98
2023-05-05T23:52:43.682Z,13.86
2023-05-05T23:55:10.863Z,13.83
2023-05-05T23:57:38.127Z,13.74
